Time;durP1;ratioP1;P1;durP2;ratioP2;P2;SDS_P1;SDS_P2;PMS_P1;PMS_P2;Temp;Humidity;BMP_temperature;BMP_pressure;BME280_temperature;BME280_humidity;BME280_pressure;Samples;Min_cycle;Max_cycle;Signal;HPM_P1;HPM_P2
2022/01/04 00:00:49;;;;;;;15.10;5.80;;;;;;;;;;6092346;23;20181;-93
2022/01/04 00:03:58;;;;;;;12.07;5.60;;;;;;;;;;6094826;23;20173;-92
2022/01/04 00:07:04;;;;;;;12.47;6.20;;;;;;;;;;6092434;23;20174;-92
2022/01/04 00:10:10;;;;;;;13.03;5.30;;;;;;;;;;6096618;23;20251;-92
2022/01/04 00:13:24;;;;;;;13.77;5.60;;;;;;;;;;6095970;23;20231;-93
2022/01/04 00:16:30;;;;;;;11.73;5.70;;;;;;;;;;6096084;23;20199;-93
2022/01/04 00:19:37;;;;;;;11.80;5.80;;;;;;;;;;6094196;23;20205;-94
2022/01/04 00:22:42;;;;;;;9.90;5.43;;;;;;;;;;6093798;23;20252;-93
2022/01/04 00:25:47;;;;;;;12.27;5.47;;;;;;;;;;6094344;23;20150;-92
2022/01/04 00:28:52;;;;;;;15.97;6.27;;;;;;;;;;6094548;23;20621;-92
2022/01/04 00:31:59;;;;;;;16.77;6.53;;;;;;;;;;6097456;23;20200;-92
2022/01/04 00:35:04;;;;;;;13.43;5.43;;;;;;;;;;6095392;23;20242;-92
2022/01/04 00:38:09;;;;;;;17.93;5.20;;;;;;;;;;6096525;23;20684;-91
2022/01/04 00:41:14;;;;;;;13.33;5.07;;;;;;;;;;6094715;23;20173;-93
2022/01/04 00:44:20;;;;;;;10.47;5.33;;;;;;;;;;6094953;23;20170;-92
2022/01/04 00:47:40;;;;;;;9.23;4.67;;;;;;;;;;6097467;23;20231;-92
2022/01/04 00:50:45;;;;;;;10.43;5.00;;;;;;;;;;6098580;23;20197;-91
2022/01/04 00:53:50;;;;;;;9.87;4.97;;;;;;;;;;6098257;23;20192;-91
2022/01/04 00:56:55;;;;;;;10.50;4.50;;;;;;;;;;6097029;23;20223;-91
2022/01/04 01:00:00;;;;;;;11.40;4.43;;;;;;;;;;6094050;23;20249;-91
2022/01/04 01:03:08;;;;;;;11.73;5.20;;;;;;;;;;6099123;23;20213;-90
2022/01/04 01:06:13;;;;;;;9.60;4.70;;;;;;;;;;6098196;23;20613;-91
2022/01/04 01:09:20;;;;;;;10.13;4.60;;;;;;;;;;6099143;23;20170;-92
2022/01/04 01:12:25;;;;;;;11.00;5.97;;;;;;;;;;6099152;23;20193;-91
2022/01/04 01:15:30;;;;;;;13.27;4.77;;;;;;;;;;6099068;23;20146;-91
2022/01/04 01:18:38;;;;;;;9.53;4.50;;;;;;;;;;6098696;23;20174;-91
2022/01/04 01:21:43;;;;;;;9.93;4.53;;;;;;;;;;6098374;23;20219;-91
2022/01/04 01:24:48;;;;;;;11.07;4.63;;;;;;;;;;6097549;23;20237;-91
2022/01/04 01:27:54;;;;;;;9.00;4.63;;;;;;;;;;6099260;23;20277;-90
2022/01/04 01:30:59;;;;;;;11.23;5.00;;;;;;;;;;6099028;23;20239;-91
2022/01/04 01:34:06;;;;;;;9.63;4.67;;;;;;;;;;6097405;23;20218;-91
2022/01/04 01:37:12;;;;;;;10.37;4.40;;;;;;;;;;6098468;23;20211;-91
2022/01/04 01:40:18;;;;;;;9.97;4.27;;;;;;;;;;6097652;23;20166;-91
2022/01/04 01:43:26;;;;;;;9.57;4.47;;;;;;;;;;6097796;23;20169;-91
2022/01/04 01:46:31;;;;;;;8.93;4.03;;;;;;;;;;6095772;23;20174;-90
2022/01/04 01:49:38;;;;;;;8.47;4.20;;;;;;;;;;6096634;23;20210;-91
2022/01/04 01:52:44;;;;;;;9.67;4.60;;;;;;;;;;6099134;23;20214;-91
2022/01/04 01:55:49;;;;;;;8.30;4.17;;;;;;;;;;6098374;23;20169;-92
2022/01/04 01:58:55;;;;;;;9.93;4.30;;;;;;;;;;6100410;23;20191;-90
2022/01/04 02:02:01;;;;;;;10.20;4.57;;;;;;;;;;6098741;23;20173;-91
2022/01/04 02:05:08;;;;;;;11.37;4.63;;;;;;;;;;6097210;23;20166;-91
2022/01/04 02:08:13;;;;;;;11.17;5.13;;;;;;;;;;6097243;23;20182;-91
2022/01/04 02:11:20;;;;;;;9.83;4.40;;;;;;;;;;6098485;23;20210;-90
2022/01/04 02:14:26;;;;;;;10.00;4.30;;;;;;;;;;6097738;23;20181;-91
2022/01/04 02:17:31;;;;;;;11.40;4.87;;;;;;;;;;6097614;23;20182;-92
2022/01/04 02:20:37;;;;;;;9.73;4.50;;;;;;;;;;6094749;23;20158;-91
2022/01/04 02:23:43;;;;;;;7.90;4.10;;;;;;;;;;6099100;23;20160;-90
2022/01/04 02:26:48;;;;;;;12.40;4.43;;;;;;;;;;6096915;23;20219;-91
2022/01/04 02:29:53;;;;;;;6.73;4.03;;;;;;;;;;6096720;23;20177;-89
2022/01/04 02:32:59;;;;;;;9.80;3.90;;;;;;;;;;6096308;23;20218;-91
2022/01/04 02:36:06;;;;;;;8.60;4.07;;;;;;;;;;6097140;23;20165;-91
2022/01/04 02:39:12;;;;;;;10.40;4.13;;;;;;;;;;6097472;23;20152;-93
2022/01/04 02:42:17;;;;;;;9.30;4.70;;;;;;;;;;6096564;23;20170;-92
2022/01/04 02:45:23;;;;;;;7.73;4.10;;;;;;;;;;6098805;23;20232;-92
2022/01/04 02:48:28;;;;;;;6.67;3.53;;;;;;;;;;6097542;23;20182;-94
2022/01/04 02:51:34;;;;;;;8.60;3.70;;;;;;;;;;6097461;23;20198;-89
2022/01/04 02:54:39;;;;;;;9.13;3.70;;;;;;;;;;6097411;23;20217;-89
2022/01/04 02:57:44;;;;;;;9.07;3.77;;;;;;;;;;6097027;23;20198;-91
2022/01/04 03:00:49;;;;;;;9.67;3.80;;;;;;;;;;6096833;23;20177;-91
2022/01/04 03:03:56;;;;;;;8.43;3.77;;;;;;;;;;6095602;23;20182;-92
2022/01/04 03:07:03;;;;;;;7.83;3.60;;;;;;;;;;6096455;23;20170;-91
2022/01/04 03:10:09;;;;;;;6.87;3.40;;;;;;;;;;6097563;23;20173;-91
2022/01/04 03:13:16;;;;;;;12.60;4.43;;;;;;;;;;6098959;23;20201;-92
2022/01/04 03:16:21;;;;;;;7.97;3.80;;;;;;;;;;6097321;23;20174;-92
2022/01/04 03:19:27;;;;;;;8.33;3.80;;;;;;;;;;6098733;23;20179;-90
2022/01/04 03:22:33;;;;;;;10.43;3.40;;;;;;;;;;6099343;23;20179;-91
2022/01/04 03:25:40;;;;;;;8.90;3.53;;;;;;;;;;6096139;23;20173;-92
2022/01/04 03:28:45;;;;;;;9.10;3.50;;;;;;;;;;6098322;23;20161;-92
2022/01/04 03:31:52;;;;;;;7.53;3.60;;;;;;;;;;6098567;23;20618;-93
2022/01/04 03:34:57;;;;;;;8.00;3.60;;;;;;;;;;6096252;23;20214;-90
2022/01/04 03:38:04;;;;;;;9.10;3.83;;;;;;;;;;6096994;23;20348;-91
2022/01/04 03:41:09;;;;;;;8.97;3.57;;;;;;;;;;6096295;23;20190;-91
2022/01/04 03:44:18;;;;;;;6.53;3.63;;;;;;;;;;6099537;23;20166;-92
2022/01/04 03:47:23;;;;;;;8.27;3.77;;;;;;;;;;6098084;23;20221;-91
2022/01/04 03:50:29;;;;;;;6.77;3.43;;;;;;;;;;6097331;23;20232;-92
2022/01/04 03:53:35;;;;;;;6.93;3.50;;;;;;;;;;6097058;23;20221;-92
2022/01/04 03:56:41;;;;;;;6.90;3.80;;;;;;;;;;6098536;23;20198;-93
2022/01/04 03:59:46;;;;;;;8.20;3.67;;;;;;;;;;6097376;23;20166;-92
2022/01/04 04:02:51;;;;;;;7.50;3.40;;;;;;;;;;6095779;23;20153;-92
2022/01/04 04:05:57;;;;;;;6.43;3.33;;;;;;;;;;6096921;23;20226;-92
2022/01/04 04:09:03;;;;;;;8.67;3.17;;;;;;;;;;6096598;23;20170;-91
2022/01/04 04:12:09;;;;;;;9.73;4.13;;;;;;;;;;6096252;23;20213;-92
2022/01/04 04:15:14;;;;;;;6.77;3.20;;;;;;;;;;6096119;23;20169;-91
2022/01/04 04:18:19;;;;;;;6.13;3.67;;;;;;;;;;6096596;23;20161;-92
2022/01/04 04:21:24;;;;;;;6.17;3.43;;;;;;;;;;6098444;23;20173;-92
2022/01/04 04:24:30;;;;;;;8.07;3.50;;;;;;;;;;6099551;23;20617;-92
2022/01/04 04:27:35;;;;;;;6.20;3.60;;;;;;;;;;6099891;23;20181;-92
2022/01/04 04:30:41;;;;;;;7.13;3.10;;;;;;;;;;6100382;23;20598;-91
2022/01/04 04:33:46;;;;;;;8.53;3.53;;;;;;;;;;6098919;23;20185;-92
2022/01/04 04:36:51;;;;;;;10.20;3.80;;;;;;;;;;6098134;23;20249;-92
2022/01/04 04:39:58;;;;;;;8.40;4.20;;;;;;;;;;6098369;23;20225;-92
2022/01/04 04:43:06;;;;;;;14.33;4.57;;;;;;;;;;6098524;23;20202;-92
2022/01/04 04:46:11;;;;;;;7.07;3.67;;;;;;;;;;6098875;23;20173;-93
2022/01/04 04:49:16;;;;;;;5.77;3.10;;;;;;;;;;6098936;23;20206;-92
2022/01/04 04:52:21;;;;;;;9.77;3.70;;;;;;;;;;6097613;23;20180;-91
2022/01/04 04:55:27;;;;;;;6.73;3.30;;;;;;;;;;6098003;23;20177;-91
2022/01/04 04:58:33;;;;;;;7.43;3.63;;;;;;;;;;6099630;23;20162;-91
2022/01/04 05:02:04;;;;;;;10.50;3.53;;;;;;;;;;6096215;23;20169;-92
2022/01/04 05:05:11;;;;;;;8.33;4.10;;;;;;;;;;6099770;23;20162;-92
2022/01/04 05:08:15;;;;;;;8.80;3.97;;;;;;;;;;6097835;23;20162;-92
2022/01/04 05:11:22;;;;;;;7.63;3.77;;;;;;;;;;6098390;23;20271;-92
2022/01/04 05:14:27;;;;;;;6.93;3.37;;;;;;;;;;6098410;23;20173;-93
2022/01/04 05:17:32;;;;;;;10.43;3.57;;;;;;;;;;6099092;23;20158;-92
2022/01/04 05:20:37;;;;;;;13.00;4.10;;;;;;;;;;6099751;23;20170;-93
2022/01/04 05:23:43;;;;;;;8.87;3.63;;;;;;;;;;6100649;23;20177;-92
2022/01/04 05:26:49;;;;;;;12.40;4.63;;;;;;;;;;6098620;23;20170;-92
2022/01/04 05:29:54;;;;;;;11.27;4.17;;;;;;;;;;6099075;23;20218;-92
2022/01/04 05:32:59;;;;;;;7.97;3.90;;;;;;;;;;6100114;23;20265;-92
2022/01/04 05:36:05;;;;;;;11.17;4.33;;;;;;;;;;6100277;23;20170;-93
2022/01/04 05:39:10;;;;;;;7.43;3.90;;;;;;;;;;6098432;23;20170;-92
2022/01/04 05:42:17;;;;;;;7.83;3.50;;;;;;;;;;6097935;23;20219;-92
2022/01/04 05:45:22;;;;;;;7.57;3.83;;;;;;;;;;6098500;23;20162;-93
2022/01/04 05:48:28;;;;;;;9.17;3.67;;;;;;;;;;6099727;23;20157;-92
2022/01/04 05:51:33;;;;;;;8.00;3.97;;;;;;;;;;6098488;23;20186;-92
2022/01/04 05:54:38;;;;;;;7.73;3.80;;;;;;;;;;6097951;23;20241;-92
2022/01/04 05:57:44;;;;;;;5.90;3.10;;;;;;;;;;6097911;23;20243;-92
2022/01/04 06:00:49;;;;;;;6.90;3.30;;;;;;;;;;6095860;23;20158;-92
2022/01/04 06:03:55;;;;;;;10.13;3.83;;;;;;;;;;6097104;23;20176;-90
2022/01/04 06:07:00;;;;;;;7.37;3.33;;;;;;;;;;6096284;23;20185;-91
2022/01/04 06:10:08;;;;;;;7.37;3.63;;;;;;;;;;6096296;23;20193;-90
2022/01/04 06:16:37;;;;;;;11.37;4.60;;;;;;;;;;6097239;23;20225;-89
2022/01/04 06:19:43;;;;;;;6.73;3.53;;;;;;;;;;6098614;23;20206;-92
2022/01/04 06:22:48;;;;;;;8.73;3.90;;;;;;;;;;6098437;23;20199;-91
2022/01/04 06:25:56;;;;;;;8.17;3.57;;;;;;;;;;6100187;23;20174;-91
2022/01/04 06:29:03;;;;;;;9.93;3.67;;;;;;;;;;6097397;23;20267;-92
2022/01/04 06:32:09;;;;;;;7.63;3.47;;;;;;;;;;6097243;23;20209;-91
2022/01/04 06:35:14;;;;;;;11.77;3.70;;;;;;;;;;6098349;23;20226;-91
2022/01/04 06:38:21;;;;;;;34.07;12.17;;;;;;;;;;6097462;23;20169;-92
2022/01/04 06:41:26;;;;;;;8.63;3.67;;;;;;;;;;6099006;23;20202;-91
2022/01/04 06:44:33;;;;;;;9.10;3.60;;;;;;;;;;6099152;23;20181;-91
2022/01/04 06:47:38;;;;;;;7.17;3.43;;;;;;;;;;6098069;23;20170;-91
2022/01/04 06:50:44;;;;;;;10.00;3.25;;;;;;;;;;6097158;23;20154;-91
2022/01/04 06:53:50;;;;;;;7.10;3.37;;;;;;;;;;6100514;23;20234;-92
2022/01/04 06:56:54;;;;;;;9.40;3.50;;;;;;;;;;6099285;23;20174;-90
2022/01/04 07:00:01;;;;;;;10.33;3.60;;;;;;;;;;6099086;23;20170;-92
2022/01/04 07:03:06;;;;;;;7.00;3.47;;;;;;;;;;6099458;23;20157;-91
2022/01/04 07:06:12;;;;;;;7.70;3.10;;;;;;;;;;6099039;23;20240;-90
2022/01/04 07:09:17;;;;;;;6.23;3.27;;;;;;;;;;6100468;23;20157;-91
2022/01/04 07:12:22;;;;;;;8.90;4.10;;;;;;;;;;6098801;23;20238;-91
2022/01/04 07:15:32;;;;;;;10.63;3.53;;;;;;;;;;6099413;23;20169;-93
2022/01/04 07:18:38;;;;;;;8.13;4.27;;;;;;;;;;6097860;23;20232;-92
2022/01/04 07:21:43;;;;;;;8.17;3.77;;;;;;;;;;6096991;23;20165;-91
2022/01/04 07:24:49;;;;;;;8.50;4.63;;;;;;;;;;6097541;23;20177;-92
2022/01/04 07:27:54;;;;;;;7.30;3.47;;;;;;;;;;6097326;23;20498;-91
2022/01/04 07:31:01;;;;;;;6.80;3.73;;;;;;;;;;6096940;23;20219;-91
2022/01/04 07:34:06;;;;;;;8.17;3.77;;;;;;;;;;6098247;23;20182;-92
2022/01/04 07:37:11;;;;;;;85.63;36.93;;;;;;;;;;6099156;23;20185;-91
2022/01/04 07:40:17;;;;;;;8.93;4.40;;;;;;;;;;6099846;23;20149;-92
2022/01/04 07:43:23;;;;;;;8.60;3.93;;;;;;;;;;6097698;23;20162;-93
2022/01/04 07:46:29;;;;;;;17.17;8.70;;;;;;;;;;6098867;23;20211;-91
2022/01/04 07:49:35;;;;;;;9.90;4.13;;;;;;;;;;6097324;23;20325;-91
2022/01/04 07:52:40;;;;;;;14.27;5.60;;;;;;;;;;6099343;23;20213;-92
2022/01/04 07:55:46;;;;;;;9.07;4.67;;;;;;;;;;6097235;23;20170;-92
2022/01/04 07:58:52;;;;;;;9.57;4.90;;;;;;;;;;6098587;23;20165;-91
2022/01/04 08:01:58;;;;;;;8.13;5.00;;;;;;;;;;6099979;23;20162;-90
2022/01/04 08:05:04;;;;;;;12.03;5.50;;;;;;;;;;6099494;23;20157;-92
2022/01/04 08:08:09;;;;;;;9.60;4.87;;;;;;;;;;6099589;23;20293;-91
2022/01/04 08:11:15;;;;;;;22.77;9.77;;;;;;;;;;6100485;23;20153;-92
2022/01/04 08:14:20;;;;;;;22.03;10.33;;;;;;;;;;6098340;23;20193;-92
2022/01/04 08:17:29;;;;;;;10.07;5.13;;;;;;;;;;6101245;23;20221;-91
2022/01/04 08:20:39;;;;;;;9.93;4.67;;;;;;;;;;6101635;23;20170;-92
2022/01/04 08:23:46;;;;;;;6.97;4.33;;;;;;;;;;6098976;23;20210;-91
2022/01/04 08:26:52;;;;;;;11.57;5.23;;;;;;;;;;6099303;23;20219;-92
2022/01/04 08:29:57;;;;;;;12.23;5.37;;;;;;;;;;6098809;23;20170;-91
2022/01/04 08:33:04;;;;;;;10.93;5.00;;;;;;;;;;6099026;23;20194;-92
2022/01/04 08:36:11;;;;;;;11.77;5.33;;;;;;;;;;6097178;23;20173;-91
2022/01/04 08:39:15;;;;;;;13.30;5.57;;;;;;;;;;6096668;23;20214;-91
2022/01/04 08:42:22;;;;;;;12.07;5.55;;;;;;;;;;6097964;23;20174;-93
2022/01/04 08:45:28;;;;;;;16.33;6.57;;;;;;;;;;6096838;23;20199;-92
2022/01/04 08:48:34;;;;;;;12.70;6.03;;;;;;;;;;6097897;23;20164;-91
2022/01/04 08:51:39;;;;;;;14.57;6.55;;;;;;;;;;6097343;23;20214;-91
2022/01/04 08:54:45;;;;;;;12.40;6.50;;;;;;;;;;6096681;23;20257;-92
2022/01/04 08:57:50;;;;;;;12.70;6.77;;;;;;;;;;6099056;23;20175;-91
2022/01/04 09:00:56;;;;;;;14.87;6.27;;;;;;;;;;6098710;23;20614;-90
2022/01/04 09:04:06;;;;;;;10.63;5.38;;;;;;;;;;6096050;23;20214;-90
2022/01/04 09:11:32;;;;;;;12.48;6.18;;;;;;;;;;6118134;23;20161;-92
2022/01/04 09:18:58;;;;;;;17.90;9.07;;;;;;;;;;6115646;23;20199;-91
2022/01/04 09:22:06;;;;;;;15.17;7.43;;;;;;;;;;6098402;23;20174;-90
2022/01/04 09:25:34;;;;;;;14.93;7.17;;;;;;;;;;6096909;23;20185;-90
2022/01/04 09:28:40;;;;;;;14.65;8.00;;;;;;;;;;6098217;23;20240;-90
2022/01/04 09:31:55;;;;;;;10.30;5.38;;;;;;;;;;6098926;23;20169;-92
2022/01/04 09:35:01;;;;;;;13.80;5.60;;;;;;;;;;6099861;23;20202;-91
2022/01/04 09:38:08;;;;;;;11.93;5.77;;;;;;;;;;6099944;23;20166;-90
2022/01/04 09:41:13;;;;;;;13.15;6.82;;;;;;;;;;6102014;23;20192;-91
2022/01/04 09:44:19;;;;;;;17.95;8.18;;;;;;;;;;6100756;23;20199;-91
2022/01/04 09:47:25;;;;;;;16.73;7.57;;;;;;;;;;6100660;23;20233;-90
2022/01/04 09:50:32;;;;;;;23.90;10.93;;;;;;;;;;6099051;23;20158;-90
2022/01/04 09:53:39;;;;;;;21.67;8.33;;;;;;;;;;6099990;23;20249;-88
2022/01/04 09:56:44;;;;;;;14.45;6.45;;;;;;;;;;6097044;23;20187;-92
2022/01/04 09:59:50;;;;;;;14.43;7.00;;;;;;;;;;6100829;23;20174;-90
2022/01/04 10:03:09;;;;;;;14.10;6.75;;;;;;;;;;6099519;23;20214;-90
2022/01/04 10:06:16;;;;;;;20.23;8.48;;;;;;;;;;6100953;23;20166;-90
2022/01/04 10:09:35;;;;;;;32.10;14.07;;;;;;;;;;6099029;23;20190;-89
2022/01/04 10:12:50;;;;;;;18.35;8.60;;;;;;;;;;6100313;23;20215;-91
2022/01/04 10:15:55;;;;;;;17.33;7.50;;;;;;;;;;6099550;23;20166;-91
2022/01/04 10:19:00;;;;;;;23.80;10.60;;;;;;;;;;6099768;23;20177;-91
2022/01/04 10:22:15;;;;;;;17.55;8.23;;;;;;;;;;6100293;23;20195;-92
2022/01/04 10:25:22;;;;;;;20.20;10.02;;;;;;;;;;6100499;23;20166;-91
2022/01/04 10:28:30;;;;;;;19.23;8.27;;;;;;;;;;6101214;23;20255;-91
2022/01/04 10:31:39;;;;;;;26.98;10.07;;;;;;;;;;6100510;23;20174;-90
2022/01/04 10:34:48;;;;;;;20.13;7.32;;;;;;;;;;6101123;23;20181;-89
2022/01/04 10:37:54;;;;;;;17.65;6.70;;;;;;;;;;6100583;23;20174;-91
2022/01/04 10:41:02;;;;;;;14.60;6.60;;;;;;;;;;6100903;23;20150;-91
2022/01/04 13:03:52;;;;;;;14.90;7.03;;;;;;;;;;6151017;23;20213;-92
2022/01/04 13:06:58;;;;;;;12.90;7.40;;;;;;;;;;6161134;23;20168;-90
2022/01/04 13:10:13;;;;;;;14.57;7.57;;;;;;;;;;6160002;23;20204;-91
2022/01/04 13:17:01;;;;;;;17.58;7.43;;;;;;;;;;6159144;23;20283;-93
2022/01/04 13:20:09;;;;;;;13.88;7.30;;;;;;;;;;6159041;23;20224;-93
2022/01/04 13:23:18;;;;;;;11.60;6.82;;;;;;;;;;6155864;23;20220;-92
2022/01/04 13:26:25;;;;;;;13.07;6.45;;;;;;;;;;6159032;23;20156;-92
2022/01/04 13:29:31;;;;;;;12.57;7.10;;;;;;;;;;6157136;23;20160;-93
2022/01/04 13:32:37;;;;;;;14.70;6.95;;;;;;;;;;6159624;23;20216;-93
2022/01/04 13:35:45;;;;;;;12.88;7.05;;;;;;;;;;6160764;23;20281;-93
2022/01/04 13:38:50;;;;;;;13.32;7.30;;;;;;;;;;6156764;23;20185;-92
2022/01/04 13:41:56;;;;;;;17.58;8.02;;;;;;;;;;6159695;23;20185;-92
2022/01/04 13:45:03;;;;;;;15.07;7.82;;;;;;;;;;6156849;23;20164;-93
2022/01/04 13:48:09;;;;;;;16.73;8.45;;;;;;;;;;6157081;23;20676;-93
2022/01/04 13:51:18;;;;;;;15.90;8.02;;;;;;;;;;6156970;23;20168;-92
2022/01/04 13:54:32;;;;;;;16.10;8.38;;;;;;;;;;6156959;23;20208;-93
2022/01/04 13:57:44;;;;;;;19.90;9.85;;;;;;;;;;6158600;23;20173;-92
2022/01/04 14:00:49;;;;;;;18.45;9.77;;;;;;;;;;6159935;23;20168;-93
2022/01/04 14:03:56;;;;;;;19.23;10.10;;;;;;;;;;6147626;23;20233;-91
2022/01/04 14:07:03;;;;;;;17.95;8.85;;;;;;;;;;6147879;23;20194;-91
2022/01/04 14:10:09;;;;;;;26.30;13.02;;;;;;;;;;6144771;23;20214;-93
2022/01/04 14:13:42;;;;;;;27.73;13.93;;;;;;;;;;6144538;23;20198;-94
2022/01/04 14:16:48;;;;;;;24.67;12.73;;;;;;;;;;6146444;23;20169;-92
2022/01/04 14:19:56;;;;;;;18.98;10.73;;;;;;;;;;6145333;23;20157;-92
2022/01/04 14:23:03;;;;;;;19.67;10.00;;;;;;;;;;6144950;23;20218;-93
2022/01/04 14:26:09;;;;;;;21.38;10.13;;;;;;;;;;6143745;23;20220;-94
2022/01/04 14:29:21;;;;;;;18.95;9.60;;;;;;;;;;6145393;23;20157;-92
2022/01/04 14:32:30;;;;;;;25.13;11.70;;;;;;;;;;6143138;23;20181;-92
2022/01/04 14:35:39;;;;;;;20.00;10.52;;;;;;;;;;6145785;23;20196;-93
2022/01/04 14:38:58;;;;;;;20.10;10.52;;;;;;;;;;6144699;23;20186;-92
2022/01/04 14:42:04;;;;;;;17.73;10.10;;;;;;;;;;6144166;23;20625;-94
2022/01/04 14:45:11;;;;;;;21.95;10.75;;;;;;;;;;6144147;23;20179;-92
2022/01/04 14:48:18;;;;;;;24.17;10.98;;;;;;;;;;6143666;23;20184;-92
2022/01/04 14:51:23;;;;;;;21.23;10.02;;;;;;;;;;6143730;23;20154;-92
2022/01/04 14:54:29;;;;;;;30.00;14.98;;;;;;;;;;6145000;23;20201;-91
2022/01/04 14:57:34;;;;;;;29.80;14.88;;;;;;;;;;6144045;23;20173;-92
2022/01/04 15:00:40;;;;;;;21.73;11.80;;;;;;;;;;6144748;23;20169;-92
2022/01/04 15:03:45;;;;;;;22.13;12.00;;;;;;;;;;6144911;23;20277;-92
2022/01/04 15:06:52;;;;;;;22.35;11.32;;;;;;;;;;6143948;23;20176;-91
2022/01/04 15:09:59;;;;;;;27.55;11.00;;;;;;;;;;6142563;23;20185;-91
2022/01/04 15:13:05;;;;;;;25.75;11.43;;;;;;;;;;6144285;23;20176;-94
2022/01/04 15:16:11;;;;;;;27.00;13.05;;;;;;;;;;6144210;23;20173;-91
2022/01/04 15:19:16;;;;;;;31.93;14.70;;;;;;;;;;6144339;23;20500;-91
2022/01/04 15:22:23;;;;;;;27.98;13.93;;;;;;;;;;6144806;23;20173;-92
2022/01/04 15:26:12;;;;;;;30.08;13.68;;;;;;;;;;6143497;23;20169;-91
2022/01/04 15:29:18;;;;;;;49.33;21.85;;;;;;;;;;6144155;23;20173;-92
2022/01/04 15:32:24;;;;;;;31.00;14.43;;;;;;;;;;6145222;23;20169;-92
2022/01/04 15:35:31;;;;;;;38.45;19.05;;;;;;;;;;6143650;23;20200;-91
2022/01/04 15:38:37;;;;;;;29.80;14.38;;;;;;;;;;6142942;23;20246;-92
2022/01/04 15:41:43;;;;;;;31.85;14.52;;;;;;;;;;6144205;23;20168;-91
2022/01/04 15:44:49;;;;;;;70.43;25.27;;;;;;;;;;6144530;23;20214;-90
2022/01/04 15:47:55;;;;;;;55.43;22.00;;;;;;;;;;6142362;23;20185;-91
2022/01/04 15:51:00;;;;;;;53.55;22.05;;;;;;;;;;6143236;23;20197;-91
2022/01/04 15:54:05;;;;;;;39.38;19.95;;;;;;;;;;6142370;23;20181;-91
2022/01/04 15:57:10;;;;;;;27.92;13.05;;;;;;;;;;6141925;23;20172;-91
2022/01/04 16:00:17;;;;;;;30.75;13.95;;;;;;;;;;6143457;23;20177;-91
2022/01/04 16:03:22;;;;;;;31.67;14.10;;;;;;;;;;6152813;23;20232;-91
2022/01/04 16:06:29;;;;;;;44.45;23.33;;;;;;;;;;6157246;23;20236;-93
2022/01/04 16:09:34;;;;;;;43.08;20.98;;;;;;;;;;6156941;23;20212;-93
2022/01/04 16:12:41;;;;;;;41.28;20.63;;;;;;;;;;6158961;23;20176;-91
2022/01/04 16:15:55;;;;;;;35.03;16.08;;;;;;;;;;6139892;23;20195;-91
2022/01/04 16:22:24;;;;;;;26.38;12.90;;;;;;;;;;6157144;23;20192;-90
2022/01/04 16:25:29;;;;;;;28.42;15.20;;;;;;;;;;6155093;23;20237;-90
2022/01/04 16:28:34;;;;;;;25.43;12.10;;;;;;;;;;6156524;23;20204;-92
2022/01/04 16:31:41;;;;;;;12.95;7.00;;;;;;;;;;6154633;23;20157;-92
2022/01/04 16:34:47;;;;;;;24.13;9.70;;;;;;;;;;6155518;23;20255;-92
2022/01/04 16:37:52;;;;;;;15.40;7.50;;;;;;;;;;6154053;23;20220;-92
2022/01/04 16:40:58;;;;;;;4.43;1.60;;;;;;;;;;6155995;23;20180;-91
2022/01/04 16:44:05;;;;;;;3.67;1.30;;;;;;;;;;6156279;23;20156;-91
2022/01/04 16:47:11;;;;;;;2.42;1.20;;;;;;;;;;6156668;23;20176;-92
2022/01/04 16:50:18;;;;;;;1.75;1.10;;;;;;;;;;6156154;23;20257;-90
2022/01/04 16:53:23;;;;;;;1.25;0.98;;;;;;;;;;6157018;23;20169;-92
2022/01/04 16:56:30;;;;;;;2.15;1.15;;;;;;;;;;6156407;23;20212;-91
2022/01/04 16:59:36;;;;;;;2.03;1.00;;;;;;;;;;6157132;23;20152;-91
2022/01/04 17:02:43;;;;;;;2.15;1.20;;;;;;;;;;6154303;23;20188;-93
2022/01/04 17:05:49;;;;;;;1.65;1.10;;;;;;;;;;6158612;23;20189;-91
2022/01/04 17:08:58;;;;;;;1.67;1.00;;;;;;;;;;6155599;23;20169;-90
2022/01/04 17:12:32;;;;;;;3.00;1.30;;;;;;;;;;6154672;23;20169;-93
2022/01/04 17:15:36;;;;;;;3.70;1.13;;;;;;;;;;6156573;23;20232;-91
2022/01/04 17:18:43;;;;;;;1.95;1.23;;;;;;;;;;6158515;23;20197;-93
2022/01/04 17:21:49;;;;;;;1.50;0.90;;;;;;;;;;6158742;23;20148;-93
2022/01/04 17:24:54;;;;;;;2.35;1.05;;;;;;;;;;6158348;23;20206;-92
2022/01/04 17:28:00;;;;;;;3.50;1.05;;;;;;;;;;6157585;23;20494;-92
2022/01/04 17:31:05;;;;;;;2.47;1.02;;;;;;;;;;6160596;23;20181;-91
2022/01/04 17:34:12;;;;;;;2.70;1.00;;;;;;;;;;6157923;23;20173;-92
2022/01/04 17:37:17;;;;;;;2.97;1.30;;;;;;;;;;6159683;23;20192;-91
2022/01/04 17:40:23;;;;;;;3.47;1.58;;;;;;;;;;6160432;23;20180;-92
2022/01/04 17:43:30;;;;;;;1.92;1.10;;;;;;;;;;6158342;23;20204;-92
2022/01/04 17:46:36;;;;;;;3.70;1.20;;;;;;;;;;6157705;23;20173;-93
2022/01/04 17:49:43;;;;;;;0.93;0.70;;;;;;;;;;6157958;23;20164;-95
2022/01/04 17:52:49;;;;;;;3.00;0.98;;;;;;;;;;6157831;23;20165;-92
2022/01/04 17:55:55;;;;;;;1.50;0.95;;;;;;;;;;6159184;23;20262;-94
2022/01/04 17:59:01;;;;;;;2.53;1.20;;;;;;;;;;6159298;23;20168;-92
2022/01/04 18:06:29;;;;;;;2.67;1.33;;;;;;;;;;6145591;23;20197;-92
2022/01/04 18:09:34;;;;;;;3.47;1.50;;;;;;;;;;6146179;23;20157;-92
2022/01/04 18:12:41;;;;;;;1.58;0.98;;;;;;;;;;6146007;23;20185;-92
2022/01/04 18:15:47;;;;;;;2.65;1.00;;;;;;;;;;6145348;23;20283;-90
2022/01/04 18:18:52;;;;;;;1.70;0.93;;;;;;;;;;6146772;23;20217;-91
2022/01/04 18:22:01;;;;;;;3.53;1.60;;;;;;;;;;6145927;23;20214;-93
2022/01/04 18:25:06;;;;;;;1.75;1.00;;;;;;;;;;6145740;23;20200;-91
2022/01/04 18:28:14;;;;;;;3.85;0.82;;;;;;;;;;6145225;23;20169;-92
2022/01/04 18:31:20;;;;;;;1.75;0.88;;;;;;;;;;6145142;23;20157;-91
2022/01/04 18:34:26;;;;;;;3.05;1.20;;;;;;;;;;6143143;23;20217;-92
2022/01/04 18:37:39;;;;;;;2.55;1.20;;;;;;;;;;6146777;23;20188;-92
2022/01/04 18:40:46;;;;;;;1.55;0.77;;;;;;;;;;6146524;23;20173;-92
2022/01/04 18:43:51;;;;;;;2.90;1.20;;;;;;;;;;6145185;23;20173;-93
2022/01/04 18:46:56;;;;;;;2.20;1.20;;;;;;;;;;6146529;23;20193;-91
2022/01/04 18:50:02;;;;;;;1.90;1.15;;;;;;;;;;6146739;23;20238;-91
2022/01/04 19:51:49;;;;;;;2.25;1.20;;;;;;;;;;6135856;23;20213;-91
2022/01/04 19:54:55;;;;;;;1.77;1.00;;;;;;;;;;6188305;23;20183;-91
2022/01/04 19:58:02;;;;;;;5.65;1.17;;;;;;;;;;6188320;23;20227;-91
2022/01/04 20:01:07;;;;;;;1.83;0.80;;;;;;;;;;6186116;23;20239;-90
2022/01/04 20:04:13;;;;;;;2.97;0.70;;;;;;;;;;6186770;23;20195;-90
2022/01/04 20:07:20;;;;;;;2.25;1.10;;;;;;;;;;6183750;23;20455;-91
2022/01/04 20:10:26;;;;;;;1.42;0.77;;;;;;;;;;6185591;23;20180;-91
2022/01/04 20:13:32;;;;;;;1.00;0.65;;;;;;;;;;6185964;23;20147;-90
2022/01/04 20:16:38;;;;;;;2.42;0.90;;;;;;;;;;6183702;23;20547;-92
2022/01/04 20:19:45;;;;;;;2.30;0.70;;;;;;;;;;6186621;23;20195;-91
2022/01/04 20:22:52;;;;;;;0.95;0.70;;;;;;;;;;6184295;23;20176;-92
2022/01/04 20:25:56;;;;;;;1.63;0.75;;;;;;;;;;6187252;23;20176;-92
2022/01/04 20:29:02;;;;;;;4.30;1.70;;;;;;;;;;6185474;23;20180;-92
2022/01/04 20:32:07;;;;;;;4.28;1.48;;;;;;;;;;6186388;23;20231;-91
2022/01/04 20:35:12;;;;;;;3.53;1.02;;;;;;;;;;6183109;23;20167;-92
2022/01/04 20:38:19;;;;;;;5.00;1.45;;;;;;;;;;6183034;23;20168;-90
2022/01/04 20:41:24;;;;;;;6.22;1.92;;;;;;;;;;6186224;23;20177;-92
2022/01/04 20:44:34;;;;;;;2.67;1.20;;;;;;;;;;6186493;23;20237;-92
2022/01/04 20:47:40;;;;;;;3.58;0.90;;;;;;;;;;6187263;23;20184;-91
2022/01/04 20:50:45;;;;;;;2.97;1.33;;;;;;;;;;6185045;23;20196;-92
2022/01/04 20:53:53;;;;;;;1.27;0.80;;;;;;;;;;6154271;23;20552;-93
2022/01/04 20:56:59;;;;;;;2.55;1.08;;;;;;;;;;6154495;23;20200;-91
2022/01/04 21:00:04;;;;;;;1.70;0.80;;;;;;;;;;6154260;23;20248;-92
2022/01/04 21:03:11;;;;;;;1.40;0.90;;;;;;;;;;6155949;23;20172;-93
2022/01/04 21:06:16;;;;;;;6.78;1.30;;;;;;;;;;6156384;23;20521;-92
2022/01/04 21:09:23;;;;;;;2.30;1.13;;;;;;;;;;6156802;23;20152;-91
2022/01/04 21:12:28;;;;;;;3.88;1.23;;;;;;;;;;6156452;23;20187;-92
2022/01/04 21:15:34;;;;;;;5.40;2.60;;;;;;;;;;6157935;23;20191;-92
2022/01/04 21:18:39;;;;;;;2.50;1.38;;;;;;;;;;6156340;23;20233;-91
2022/01/04 21:21:44;;;;;;;4.28;1.27;;;;;;;;;;6158095;23;20241;-92
2022/01/04 21:24:51;;;;;;;2.30;1.20;;;;;;;;;;6156720;23;20172;-91
2022/01/04 21:27:59;;;;;;;5.38;2.13;;;;;;;;;;6157450;23;20197;-91
2022/01/04 21:31:05;;;;;;;3.55;1.83;;;;;;;;;;6160513;23;20168;-91
2022/01/04 21:34:10;;;;;;;2.63;1.20;;;;;;;;;;6156301;23;20167;-91
2022/01/04 21:37:16;;;;;;;1.08;0.80;;;;;;;;;;6156645;23;20643;-92
2022/01/04 21:40:22;;;;;;;1.15;0.90;;;;;;;;;;6157139;23;20172;-91
2022/01/04 21:43:28;;;;;;;1.33;0.80;;;;;;;;;;6158085;23;20172;-91
2022/01/04 21:46:34;;;;;;;2.55;0.90;;;;;;;;;;6158028;23;20211;-92
2022/01/04 21:49:39;;;;;;;0.63;0.60;;;;;;;;;;6158981;23;20212;-91
2022/01/04 21:52:45;;;;;;;1.00;0.80;;;;;;;;;;6176246;23;20183;-91
2022/01/04 21:55:52;;;;;;;3.07;0.90;;;;;;;;;;6186570;23;20208;-91
2022/01/04 21:58:57;;;;;;;2.00;0.97;;;;;;;;;;6189783;23;20240;-91
2022/01/04 22:02:03;;;;;;;2.87;1.40;;;;;;;;;;6188049;23;20594;-92
2022/01/04 22:05:09;;;;;;;2.13;1.13;;;;;;;;;;6188791;23;20168;-93
2022/01/04 22:08:14;;;;;;;2.33;1.20;;;;;;;;;;6188772;23;20163;-91
2022/01/04 22:11:21;;;;;;;1.40;1.00;;;;;;;;;;6187513;23;20252;-92